createdAt,value
2017-01-28T00:00:53.882Z,15.23
2017-01-28T00:02:04.207Z,14.94
2017-01-28T00:03:13.338Z,15.04
2017-01-28T00:04:24.050Z,15.23
2017-01-28T00:05:34.221Z,15.23
2017-01-28T00:06:44.551Z,15.04
2017-01-28T00:07:55.284Z,15.13
2017-01-28T00:09:05.612Z,15.23
2017-01-28T00:10:16.326Z,15.23
2017-01-28T00:11:26.109Z,15.33
2017-01-28T00:12:36.825Z,15.13
2017-01-28T00:13:47.136Z,15.04
2017-01-28T00:14:57.462Z,15.33
2017-01-28T00:16:07.392Z,15.33
2017-01-28T00:17:17.974Z,15.33
2017-01-28T00:18:28.692Z,15.33
2017-01-28T00:19:39.018Z,15.04
2017-01-28T00:20:49.763Z,15.04
2017-01-28T00:21:59.693Z,15.13
2017-01-28T00:23:09.875Z,15.13
2017-01-28T00:24:20.613Z,15.13
2017-01-28T00:25:29.749Z,15.04
2017-01-28T00:26:40.497Z,15.04
2017-01-28T00:27:51.219Z,15.04
2017-01-28T00:29:01.795Z,15.04
2017-01-28T00:30:11.757Z,15.13
2017-01-28T00:31:21.312Z,14.94
2017-01-28T00:32:31.226Z,15.04
2017-01-28T00:33:41.194Z,15.04
2017-01-28T00:34:51.751Z,15.13
2017-01-28T00:36:00.920Z,15.13
2017-01-28T00:37:11.247Z,15.04
2017-01-28T00:38:21.970Z,15.13
2017-01-28T00:39:32.287Z,15.13
2017-01-28T00:40:42.504Z,15.04
2017-01-28T00:41:52.834Z,15.03
2017-01-28T00:43:03.160Z,15.04
2017-01-28T00:44:13.512Z,15.13
2017-01-28T00:45:24.227Z,15.23
2017-01-28T00:46:34.791Z,15.33
2017-01-28T00:47:45.108Z,15.13
2017-01-28T00:48:55.435Z,15.13
2017-01-28T00:50:05.755Z,15.23
2017-01-28T00:51:15.682Z,15.13
2017-01-28T00:52:26.475Z,15.04
2017-01-28T00:53:36.787Z,15.04
2017-01-28T00:54:46.715Z,15.04
2017-01-28T00:55:57.432Z,15.13
2017-01-28T00:57:08.149Z,14.84
2017-01-28T00:58:18.709Z,15.04
2017-01-28T00:59:28.635Z,15.13
2017-01-28T01:00:39.345Z,15.13
2017-01-28T01:01:48.870Z,15.23
2017-01-28T01:02:59.178Z,15.32
2017-01-28T01:04:09.371Z,15.12
2017-01-28T01:05:19.682Z,15.32
2017-01-28T01:06:29.592Z,15.04
2017-01-28T01:07:39.511Z,15.12
2017-01-28T01:08:49.423Z,15.13
2017-01-28T01:09:59.198Z,15.12
2017-01-28T01:11:08.825Z,15.03
2017-01-28T01:12:19.166Z,15.12
2017-01-28T01:13:29.474Z,14.94
2017-01-28T01:14:39.860Z,14.74
2017-01-28T01:15:50.043Z,14.94
2017-01-28T01:16:59.984Z,15.03
2017-01-28T01:18:10.303Z,14.74
2017-01-28T01:19:20.623Z,14.74
2017-01-28T01:20:30.944Z,15.03
2017-01-28T01:21:41.811Z,14.94
2017-01-28T01:22:52.126Z,14.74
2017-01-28T01:24:02.439Z,15.03
2017-01-28T01:25:12.739Z,14.84
2017-01-28T01:26:23.485Z,14.75
2017-01-28T01:27:34.106Z,14.84
2017-01-28T01:28:44.412Z,14.84
2017-01-28T01:29:55.126Z,14.94
2017-01-28T01:31:05.835Z,14.84
2017-01-28T01:32:16.133Z,14.84
2017-01-28T01:33:26.754Z,14.84
2017-01-28T01:34:37.061Z,14.75
2017-01-28T01:35:46.980Z,14.74
2017-01-28T01:36:56.958Z,14.74
2017-01-28T01:38:07.279Z,14.94
2017-01-28T01:39:17.447Z,15.04
2017-01-28T01:40:27.365Z,14.84
2017-01-28T01:41:37.681Z,14.94
2017-01-28T01:42:48.001Z,15.12
2017-01-28T01:43:58.717Z,14.84
2017-01-28T01:45:08.896Z,15.03
2017-01-28T01:46:19.306Z,14.94
2017-01-28T01:47:30.013Z,14.94
2017-01-28T01:48:40.742Z,14.94
2017-01-28T01:49:51.451Z,14.84
2017-01-28T01:51:02.018Z,14.84
2017-01-28T01:52:12.337Z,14.84
2017-01-28T01:53:22.255Z,14.74
2017-01-28T01:54:32.195Z,14.74
2017-01-28T01:55:42.910Z,15.03
2017-01-28T01:56:53.476Z,14.94
2017-01-28T01:58:03.402Z,14.94
2017-01-28T01:59:14.112Z,14.74
2017-01-28T02:00:24.494Z,14.74
2017-01-28T02:01:35.197Z,14.74
2017-01-28T02:02:45.767Z,14.84
2017-01-28T02:03:56.078Z,14.84
2017-01-28T02:05:06.397Z,14.65
2017-01-28T02:06:17.103Z,14.84
2017-01-28T02:07:27.812Z,14.94
2017-01-28T02:08:38.771Z,15.03
2017-01-28T02:09:49.101Z,14.74
2017-01-28T02:10:59.052Z,15.03
2017-01-28T02:12:08.571Z,15.03
2017-01-28T02:13:19.290Z,15.12
2017-01-28T02:14:30.296Z,14.84
2017-01-28T02:15:40.607Z,14.84
2017-01-28T02:16:50.916Z,14.84
2017-01-28T02:18:00.438Z,14.84
2017-01-28T02:19:10.748Z,15.03
2017-01-28T02:20:21.313Z,14.84
2017-01-28T02:21:31.225Z,14.94
2017-01-28T02:22:41.960Z,14.65
2017-01-28T02:23:52.668Z,14.74
2017-01-28T02:25:02.583Z,14.94
2017-01-28T02:26:13.145Z,14.84
2017-01-28T02:27:22.707Z,14.74
2017-01-28T02:28:33.073Z,14.74
2017-01-28T02:29:43.005Z,14.84
2017-01-28T02:30:53.315Z,14.94
2017-01-28T02:32:03.886Z,14.84
2017-01-28T02:33:14.200Z,14.74
2017-01-28T02:34:24.123Z,14.84
2017-01-28T02:35:34.859Z,14.84
2017-01-28T02:36:45.273Z,15.03
2017-01-28T02:37:56.281Z,14.84
2017-01-28T02:39:07.008Z,14.74
2017-01-28T02:40:17.310Z,14.84
2017-01-28T02:41:27.622Z,14.94
2017-01-28T02:42:37.943Z,14.94
2017-01-28T02:43:48.206Z,14.84
2017-01-28T02:44:57.334Z,14.84
2017-01-28T02:46:07.250Z,14.84
2017-01-28T02:47:17.564Z,15.03
2017-01-28T02:48:27.878Z,14.94
2017-01-28T02:49:38.440Z,14.65
2017-01-28T02:50:49.142Z,14.84
2017-01-28T02:51:59.459Z,14.94
2017-01-28T02:53:10.184Z,14.94
2017-01-28T02:54:20.108Z,14.74
2017-01-28T02:55:30.269Z,14.94
2017-01-28T02:56:40.583Z,14.74
2017-01-28T02:57:50.493Z,14.74
2017-01-28T02:59:00.810Z,14.84
2017-01-28T03:00:11.553Z,14.65
2017-01-28T03:01:21.348Z,14.65
2017-01-28T03:02:31.254Z,14.65
2017-01-28T03:03:41.568Z,14.94
2017-01-28T03:04:51.530Z,14.84
2017-01-28T03:06:01.833Z,14.94
2017-01-28T03:07:11.613Z,14.84
2017-01-28T03:08:21.911Z,14.84
2017-01-28T03:09:32.225Z,14.65
2017-01-28T03:10:42.544Z,14.84
2017-01-28T03:11:53.242Z,14.84
2017-01-28T03:13:03.421Z,14.74
2017-01-28T03:14:13.348Z,14.74
2017-01-28T03:15:24.053Z,14.74
2017-01-28T03:16:33.962Z,14.65
2017-01-28T03:17:44.271Z,14.65
2017-01-28T03:18:54.829Z,14.55
2017-01-28T03:20:05.146Z,14.36
2017-01-28T03:21:15.459Z,14.74
2017-01-28T03:22:25.767Z,14.74
2017-01-28T03:23:36.084Z,14.84
2017-01-28T03:24:46.307Z,14.65
2017-01-28T03:25:55.830Z,14.84
2017-01-28T03:27:06.167Z,14.65
2017-01-28T03:28:16.091Z,14.84
2017-01-28T03:29:26.415Z,14.74
2017-01-28T03:30:37.371Z,14.55
2017-01-28T03:31:47.680Z,14.84
2017-01-28T03:32:58.391Z,14.74
2017-01-28T03:34:08.709Z,14.94
2017-01-28T03:35:19.013Z,14.74
2017-01-28T03:36:29.972Z,14.65
2017-01-28T03:37:40.679Z,14.74
2017-01-28T03:38:50.595Z,14.74
2017-01-28T03:40:00.516Z,14.55
2017-01-28T03:41:10.429Z,14.84
2017-01-28T03:42:20.644Z,14.55
2017-01-28T03:43:30.962Z,14.17
2017-01-28T03:44:41.271Z,14.65
2017-01-28T03:45:51.987Z,14.17
2017-01-28T03:47:02.293Z,14.17
2017-01-28T03:48:12.464Z,14.45
2017-01-28T03:49:22.782Z,14.26
2017-01-28T03:50:32.699Z,14.26
2017-01-28T03:51:42.615Z,14.36
2017-01-28T03:52:52.935Z,14.36
2017-01-28T03:54:03.218Z,14.36
2017-01-28T03:55:13.135Z,14.26
2017-01-28T03:56:23.447Z,14.45
2017-01-28T03:57:32.978Z,14.45
2017-01-28T03:58:43.690Z,14.26
2017-01-28T03:59:53.470Z,14.26
2017-01-28T04:01:03.397Z,14.26
2017-01-28T04:02:13.712Z,14.45
2017-01-28T04:03:24.023Z,14.45
2017-01-28T04:04:34.736Z,14.45
2017-01-28T04:05:45.315Z,14.26
2017-01-28T04:06:55.237Z,14.45
2017-01-28T04:08:05.936Z,14.45
2017-01-28T04:09:16.257Z,14.55
2017-01-28T04:10:26.574Z,14.36
2017-01-28T04:11:37.579Z,14.65
2017-01-28T04:12:47.892Z,14.45
2017-01-28T04:13:58.602Z,14.55
2017-01-28T04:15:08.917Z,14.45
2017-01-28T04:16:19.232Z,14.55
2017-01-28T04:17:29.003Z,14.45
2017-01-28T04:18:39.319Z,14.45
2017-01-28T04:19:49.228Z,14.26
2017-01-28T04:20:59.528Z,14.45
2017-01-28T04:22:09.455Z,14.45
2017-01-28T04:23:19.617Z,14.17
2017-01-28T04:24:29.533Z,14.36
2017-01-28T04:25:40.240Z,14.07
2017-01-28T04:26:50.556Z,14.07
2017-01-28T04:28:00.892Z,14.07
2017-01-28T04:29:11.842Z,14.55
2017-01-28T04:30:22.549Z,13.98
2017-01-28T04:31:32.858Z,14.26
2017-01-28T04:32:43.563Z,14.07
2017-01-28T04:33:53.975Z,13.98
2017-01-28T04:35:04.926Z,14.17
2017-01-28T04:36:14.846Z,14.17
2017-01-28T04:37:25.164Z,14.26
2017-01-28T04:38:34.286Z,14.26
2017-01-28T04:39:44.761Z,14.36
2017-01-28T04:40:54.961Z,14.36
2017-01-28T04:42:04.090Z,14.07
2017-01-28T04:43:13.993Z,14.17
2017-01-28T04:44:24.304Z,14.45
2017-01-28T04:45:33.974Z,13.98
2017-01-28T04:46:44.618Z,14.07
2017-01-28T04:47:54.131Z,14.07
2017-01-28T04:49:03.643Z,14.07
2017-01-28T04:50:13.159Z,14.17
2017-01-28T04:51:23.869Z,14.17
2017-01-28T04:52:34.829Z,14.17
2017-01-28T04:53:45.538Z,14.17
2017-01-28T04:54:55.479Z,14.36
2017-01-28T04:56:05.897Z,14.07
2017-01-28T04:57:16.209Z,14.26
2017-01-28T04:58:26.820Z,14.26
2017-01-28T04:59:37.525Z,14.26
2017-01-28T05:00:47.048Z,14.36
2017-01-28T05:01:56.962Z,14.36
2017-01-28T05:03:06.878Z,14.17
2017-01-28T05:04:17.445Z,14.07
2017-01-28T05:05:27.754Z,14.17
2017-01-28T05:06:37.668Z,13.98
2017-01-28T05:07:47.608Z,13.88
2017-01-28T05:08:57.524Z,14.45
2017-01-28T05:10:08.093Z,14.17
2017-01-28T05:11:18.794Z,14.26
2017-01-28T05:12:29.140Z,14.26
2017-01-28T05:13:39.048Z,14.17
2017-01-28T05:14:49.854Z,14.17
2017-01-28T05:15:59.624Z,14.07
2017-01-28T05:17:09.943Z,14.26
2017-01-28T05:18:19.067Z,14.45
2017-01-28T05:19:28.607Z,14.36
2017-01-28T05:20:38.517Z,14.55
2017-01-28T05:21:49.088Z,14.45
2017-01-28T05:22:59.403Z,14.45
2017-01-28T05:24:09.334Z,14.45
2017-01-28T05:25:19.638Z,14.36
2017-01-28T05:26:29.167Z,14.17
2017-01-28T05:27:39.772Z,14.36
2017-01-28T05:28:49.691Z,14.26
2017-01-28T05:30:00.385Z,14.26
2017-01-28T05:31:11.093Z,14.45
2017-01-28T05:32:21.403Z,14.45
2017-01-28T05:33:32.011Z,14.26
2017-01-28T05:34:42.324Z,14.45
2017-01-28T05:35:51.844Z,14.45
2017-01-28T05:37:02.195Z,14.36
2017-01-28T05:38:12.559Z,14.36
2017-01-28T05:39:22.725Z,14.26
2017-01-28T05:40:33.034Z,14.36
2017-01-28T05:41:43.344Z,14.36
2017-01-28T05:42:53.659Z,14.36
2017-01-28T05:44:03.586Z,14.36
2017-01-28T05:45:14.164Z,14.65
2017-01-28T05:46:24.926Z,14.74
2017-01-28T05:47:34.462Z,14.73
2017-01-28T05:48:44.373Z,14.83
2017-01-28T05:49:54.689Z,14.65
2017-01-28T05:51:05.645Z,14.84
2017-01-28T05:52:15.961Z,14.94
2017-01-28T05:53:26.268Z,14.65
2017-01-28T05:54:36.581Z,14.93
2017-01-28T05:55:46.498Z,14.84
2017-01-28T05:56:56.277Z,14.65
2017-01-28T05:58:06.601Z,14.74
2017-01-28T05:59:16.517Z,14.64
2017-01-28T06:00:27.221Z,14.84
2017-01-28T06:01:37.152Z,14.84
2017-01-28T06:02:46.924Z,14.84
2017-01-28T06:03:57.659Z,14.84
2017-01-28T06:05:07.583Z,14.94
2017-01-28T06:06:17.497Z,14.74
2017-01-28T06:07:27.814Z,14.93
2017-01-28T06:08:37.589Z,14.93
2017-01-28T06:09:47.900Z,14.83
2017-01-28T06:10:58.607Z,14.93
2017-01-28T06:12:09.316Z,14.73
2017-01-28T06:13:19.621Z,14.93
2017-01-28T06:14:29.791Z,14.93
2017-01-28T06:15:40.112Z,14.94
2017-01-28T06:16:50.028Z,14.83
2017-01-28T06:17:59.948Z,15.02
2017-01-28T06:19:10.655Z,14.64
2017-01-28T06:20:20.087Z,14.64
2017-01-28T06:21:30.405Z,14.83
2017-01-28T06:22:40.724Z,15.02
2017-01-28T06:23:50.699Z,15.02
2017-01-28T06:25:01.414Z,14.93
2017-01-28T06:26:12.368Z,14.73
2017-01-28T06:27:22.286Z,14.93
2017-01-28T06:28:33.001Z,15.02
2017-01-28T06:29:42.525Z,14.93
2017-01-28T06:30:52.053Z,15.02
2017-01-28T06:32:02.620Z,14.73
2017-01-28T06:33:12.529Z,14.93
2017-01-28T06:34:23.236Z,14.83
2017-01-28T06:35:33.551Z,14.93
2017-01-28T06:36:43.867Z,14.83
2017-01-28T06:37:54.424Z,14.83
2017-01-28T06:39:04.731Z,14.83
2017-01-28T06:40:15.051Z,14.73
2017-01-28T06:41:25.758Z,15.02
2017-01-28T06:42:36.481Z,15.02
2017-01-28T06:43:47.048Z,14.83
2017-01-28T06:44:56.568Z,14.93
2017-01-28T06:46:06.898Z,14.73
2017-01-28T06:47:17.221Z,15.02
2017-01-28T06:48:27.144Z,15.12
2017-01-28T06:49:37.760Z,15.02
2017-01-28T06:50:47.786Z,15.12
2017-01-28T06:51:57.701Z,15.02
2017-01-28T06:53:08.009Z,14.93
2017-01-28T06:54:17.547Z,14.73
2017-01-28T06:55:27.718Z,14.64
2017-01-28T06:56:38.430Z,14.93
2017-01-28T06:57:48.348Z,14.73
2017-01-28T06:58:58.276Z,14.83
2017-01-28T07:00:08.584Z,14.73
2017-01-28T07:01:19.153Z,15.12
2017-01-28T07:02:29.475Z,14.83
2017-01-28T07:03:40.177Z,14.83
2017-01-28T07:04:50.878Z,14.93
2017-01-28T07:06:01.186Z,14.64
2017-01-28T07:07:12.143Z,14.64
2017-01-28T07:08:22.069Z,14.83
2017-01-28T07:09:32.789Z,14.83
2017-01-28T07:10:43.664Z,14.93
2017-01-28T07:11:53.989Z,14.93
2017-01-28T07:13:04.209Z,15.02
2017-01-28T07:14:14.525Z,14.93
2017-01-28T07:15:24.045Z,15.02
2017-01-28T07:16:34.763Z,15.02
2017-01-28T07:17:44.695Z,15.02
2017-01-28T07:18:55.665Z,14.73
2017-01-28T07:20:05.581Z,14.74
2017-01-28T07:21:16.279Z,14.83
2017-01-28T07:22:26.589Z,15.02
2017-01-28T07:23:37.290Z,15.02
2017-01-28T07:24:47.855Z,14.93
2017-01-28T07:25:58.181Z,15.02
2017-01-28T07:27:08.493Z,14.73
2017-01-28T07:28:18.010Z,14.93
2017-01-28T07:29:28.331Z,14.83
2017-01-28T07:30:39.156Z,14.83
2017-01-28T07:31:49.856Z,14.93
2017-01-28T07:33:00.161Z,14.83
2017-01-28T07:34:10.465Z,15.12
2017-01-28T07:35:20.788Z,14.73
2017-01-28T07:36:30.977Z,14.83
2017-01-28T07:37:41.691Z,15.12
2017-01-28T07:38:50.826Z,14.93
2017-01-28T07:40:01.157Z,14.93
2017-01-28T07:41:11.468Z,14.73
2017-01-28T07:42:22.094Z,14.73
2017-01-28T07:43:32.008Z,14.83
2017-01-28T07:44:42.317Z,14.93
2017-01-28T07:45:52.637Z,15.12
2017-01-28T07:47:02.561Z,14.83
2017-01-28T07:48:17.085Z,14.83
2017-01-28T07:49:27.117Z,14.93
2017-01-28T07:50:37.834Z,14.93
2017-01-28T07:51:48.152Z,14.93
2017-01-28T07:52:58.463Z,15.02
2017-01-28T07:54:09.420Z,15.12
2017-01-28T07:55:20.142Z,14.93
2017-01-28T07:56:30.053Z,14.83
2017-01-28T07:57:40.795Z,14.73
2017-01-28T07:58:50.710Z,15.02
2017-01-28T08:00:00.785Z,15.02
2017-01-28T08:01:11.114Z,14.73
2017-01-28T08:02:21.417Z,15.12
2017-01-28T08:03:31.713Z,14.93
2017-01-28T08:04:41.626Z,15.02
2017-01-28T08:05:51.438Z,15.02
2017-01-28T08:07:01.868Z,15.02
2017-01-28T08:08:12.201Z,15.02
2017-01-28T08:09:22.126Z,15.12
2017-01-28T08:10:32.432Z,15.12
2017-01-28T08:11:42.595Z,14.73
2017-01-28T08:12:53.290Z,14.83
2017-01-28T08:14:03.608Z,14.93
2017-01-28T08:15:13.560Z,14.64
2017-01-28T08:16:23.495Z,14.65
2017-01-28T08:17:33.306Z,15.03
2017-01-28T08:18:42.842Z,14.84
2017-01-28T08:19:52.758Z,14.83
2017-01-28T08:21:03.074Z,14.93
2017-01-28T08:22:12.596Z,14.93
2017-01-28T08:23:23.266Z,14.93
2017-01-28T08:24:33.187Z,15.12
2017-01-28T08:25:43.904Z,14.93
2017-01-28T08:26:53.802Z,14.83
2017-01-28T08:28:03.316Z,14.64
2017-01-28T08:29:13.472Z,14.94
2017-01-28T08:30:23.749Z,14.83
2017-01-28T08:31:34.059Z,14.84
2017-01-28T08:32:43.958Z,14.64
2017-01-28T08:33:54.252Z,14.83
2017-01-28T08:35:04.055Z,14.84
2017-01-28T08:36:13.946Z,14.84
2017-01-28T08:37:24.232Z,14.83
2017-01-28T08:38:34.535Z,14.65
2017-01-28T08:39:43.640Z,14.73
2017-01-28T08:40:53.789Z,14.84
2017-01-28T08:42:03.676Z,14.93
2017-01-28T08:43:13.972Z,14.93
2017-01-28T08:44:24.664Z,14.74
2017-01-28T08:45:34.562Z,14.93
2017-01-28T08:46:45.575Z,14.83
2017-01-28T08:47:55.862Z,14.94
2017-01-28T08:49:05.381Z,14.64
2017-01-28T08:50:15.280Z,14.83
2017-01-28T08:51:25.183Z,15.03
2017-01-28T08:52:35.336Z,14.74
2017-01-28T08:53:45.672Z,14.74
2017-01-28T08:54:55.952Z,14.73
2017-01-28T08:56:05.841Z,15.02
2017-01-28T08:57:15.361Z,15.12
2017-01-28T08:58:25.504Z,14.93
2017-01-28T08:59:35.410Z,14.73
2017-01-28T09:00:45.068Z,14.73
2017-01-28T09:01:54.961Z,14.74
2017-01-28T09:03:04.857Z,14.83
2017-01-28T09:04:15.403Z,14.74
2017-01-28T09:05:24.515Z,14.74
2017-01-28T09:06:34.420Z,14.84
2017-01-28T09:07:45.114Z,14.73
2017-01-28T09:08:55.045Z,14.84
2017-01-28T09:10:06.004Z,14.65
2017-01-28T09:11:16.688Z,15.03
2017-01-28T09:12:26.976Z,14.84
2017-01-28T09:13:37.690Z,14.83
2017-01-28T09:14:48.385Z,14.84
2017-01-28T09:15:59.372Z,14.84
2017-01-28T09:17:09.908Z,14.84
2017-01-28T09:18:20.201Z,14.65
2017-01-28T09:19:31.015Z,14.65
2017-01-28T09:20:41.321Z,14.84
2017-01-28T09:21:51.884Z,14.94
2017-01-28T09:23:01.798Z,15.03
2017-01-28T09:24:11.703Z,15.03
2017-01-28T09:25:21.604Z,14.84
2017-01-28T09:26:31.132Z,14.94
2017-01-28T09:27:41.736Z,14.94
2017-01-28T09:28:51.272Z,15.03
2017-01-28T09:30:01.205Z,15.03
2017-01-28T09:31:11.141Z,15.03
2017-01-28T09:32:21.846Z,14.94
2017-01-28T09:33:32.395Z,14.74
2017-01-28T09:34:42.702Z,14.65
2017-01-28T09:35:52.610Z,14.94
2017-01-28T09:37:02.909Z,14.94
2017-01-28T09:38:13.228Z,14.84
2017-01-28T09:39:24.225Z,14.94
2017-01-28T09:40:34.526Z,14.94
2017-01-28T09:41:44.827Z,14.94
2017-01-28T09:42:55.511Z,14.84
2017-01-28T09:44:05.430Z,14.74
2017-01-28T09:45:16.018Z,14.94
2017-01-28T09:46:26.308Z,14.84
2017-01-28T09:47:37.020Z,14.74
2017-01-28T09:48:46.939Z,14.74
2017-01-28T09:49:57.634Z,14.65
2017-01-28T09:51:07.800Z,14.94
2017-01-28T09:52:18.089Z,14.74
2017-01-28T09:53:28.408Z,14.74
2017-01-28T09:54:38.734Z,14.65
2017-01-28T09:55:49.039Z,14.65
2017-01-28T09:56:59.992Z,14.84
2017-01-28T09:58:10.002Z,14.94
2017-01-28T09:59:19.917Z,14.94
2017-01-28T10:00:30.275Z,14.94
2017-01-28T10:01:40.201Z,14.94
2017-01-28T10:02:50.798Z,14.65
2017-01-28T10:04:00.699Z,14.94
2017-01-28T10:05:10.628Z,14.65
2017-01-28T10:06:20.522Z,15.03
2017-01-28T10:07:30.839Z,14.84
2017-01-28T10:08:41.388Z,14.84
2017-01-28T10:09:51.686Z,14.84
2017-01-28T10:11:00.791Z,14.84
2017-01-28T10:12:09.515Z,14.84
2017-01-28T10:13:20.218Z,15.03
2017-01-28T10:14:30.801Z,14.84
2017-01-28T10:15:41.099Z,14.65
2017-01-28T10:16:51.043Z,14.74
2017-01-28T10:18:00.572Z,14.84
2017-01-28T10:19:10.480Z,14.65
2017-01-28T10:20:21.463Z,14.55
2017-01-28T10:21:31.378Z,14.94
2017-01-28T10:22:41.684Z,14.65
2017-01-28T10:23:51.574Z,14.84
2017-01-28T10:25:01.481Z,14.74
2017-01-28T10:26:11.500Z,14.84
2017-01-28T10:27:21.017Z,14.84
2017-01-28T10:28:31.314Z,14.45
2017-01-28T10:29:41.256Z,14.74
2017-01-28T10:30:51.160Z,14.74
2017-01-28T10:32:01.715Z,14.55
2017-01-28T10:33:12.408Z,14.74
2017-01-28T10:34:23.087Z,14.74
2017-01-28T10:35:33.010Z,14.94
2017-01-28T10:36:43.707Z,14.65
2017-01-28T10:37:53.889Z,14.55
2017-01-28T10:39:04.616Z,14.94
2017-01-28T10:40:14.937Z,14.84
2017-01-28T10:41:24.454Z,14.74
2017-01-28T10:42:34.754Z,14.74
2017-01-28T10:43:45.294Z,14.74
2017-01-28T10:44:55.605Z,14.74
2017-01-28T10:46:05.159Z,14.65
2017-01-28T10:47:15.070Z,14.84
2017-01-28T10:48:24.196Z,14.74
2017-01-28T10:49:35.224Z,14.55
2017-01-28T10:50:45.168Z,14.45
2017-01-28T10:51:55.517Z,14.26
2017-01-28T10:53:06.245Z,14.45
2017-01-28T10:54:16.627Z,14.55
2017-01-28T10:55:27.189Z,14.65
2017-01-28T10:56:36.732Z,14.65
2017-01-28T10:57:47.453Z,14.84
2017-01-28T10:58:58.234Z,14.45
2017-01-28T11:00:08.571Z,14.55
2017-01-28T11:01:18.818Z,14.26
2017-01-28T11:02:29.149Z,14.26
2017-01-28T11:03:39.498Z,14.55
2017-01-28T11:04:50.243Z,14.65
2017-01-28T11:06:00.981Z,14.94
2017-01-28T11:07:11.962Z,14.55
2017-01-28T11:08:21.901Z,14.55
2017-01-28T11:09:32.245Z,14.55
2017-01-28T11:10:42.974Z,14.74
2017-01-28T11:11:52.932Z,14.55
2017-01-28T11:13:03.211Z,14.56
2017-01-28T11:14:13.144Z,14.46
2017-01-28T11:15:23.864Z,14.74
2017-01-28T11:16:34.210Z,14.65
2017-01-28T11:17:44.556Z,14.56
2017-01-28T11:18:54.795Z,14.36
2017-01-28T11:20:04.729Z,14.37
2017-01-28T11:21:15.471Z,14.37
2017-01-28T11:22:25.845Z,14.26
2017-01-28T11:23:36.168Z,14.26
2017-01-28T11:24:47.201Z,14.27
2017-01-28T11:25:57.138Z,14.55
2017-01-28T11:27:07.868Z,14.56
2017-01-28T11:28:18.610Z,14.36
2017-01-28T11:29:28.949Z,14.36
2017-01-28T11:30:39.561Z,14.37
2017-01-28T11:31:50.302Z,14.17
2017-01-28T11:33:01.025Z,14.26
2017-01-28T11:34:11.350Z,14.26
2017-01-28T11:35:22.163Z,14.36
2017-01-28T11:36:32.760Z,14.37
2017-01-28T11:37:43.498Z,14.27
2017-01-28T11:38:54.224Z,14.17
2017-01-28T11:40:04.949Z,14.26
2017-01-28T11:41:15.662Z,14.36
2017-01-28T11:42:26.698Z,14.37
2017-01-28T11:43:37.422Z,14.26
2017-01-28T11:44:47.757Z,14.55
2017-01-28T11:45:58.479Z,14.26
2017-01-28T11:47:08.411Z,14.45
2017-01-28T11:48:18.980Z,14.84
2017-01-28T11:49:29.702Z,14.55
2017-01-28T11:50:40.040Z,14.45
2017-01-28T11:51:50.359Z,14.26
2017-01-28T11:53:00.688Z,14.27
2017-01-28T11:54:11.667Z,14.45
2017-01-28T11:55:22.387Z,14.45
2017-01-28T11:56:33.126Z,14.36
2017-01-28T11:57:43.860Z,14.45
2017-01-28T11:58:54.612Z,14.37
2017-01-28T12:00:05.218Z,14.45
2017-01-28T12:01:15.933Z,14.26
2017-01-28T12:02:26.669Z,14.45
2017-01-28T12:03:37.398Z,14.46
2017-01-28T12:04:47.334Z,14.36
2017-01-28T12:05:57.980Z,14.46
2017-01-28T12:07:07.936Z,14.37
2017-01-28T12:08:18.313Z,14.46
2017-01-28T12:09:28.707Z,14.37
2017-01-28T12:10:39.450Z,14.46
2017-01-28T12:11:50.445Z,14.46
2017-01-28T12:13:00.395Z,14.08
2017-01-28T12:14:11.123Z,14.37
2017-01-28T12:15:21.871Z,14.37
2017-01-28T12:16:32.717Z,14.27
2017-01-28T12:17:43.702Z,14.37
2017-01-28T12:18:54.045Z,14.08
2017-01-28T12:20:04.402Z,14.37
2017-01-28T12:21:15.157Z,14.08
2017-01-28T12:22:25.501Z,14.56
2017-01-28T12:23:36.478Z,14.27
2017-01-28T12:24:46.818Z,14.26
2017-01-28T12:25:57.151Z,14.37
2017-01-28T12:27:07.878Z,14.37
2017-01-28T12:28:18.613Z,14.37
2017-01-28T12:29:29.270Z,14.46
2017-01-28T12:30:39.615Z,14.45
2017-01-28T12:31:50.377Z,14.56
2017-01-28T12:33:00.712Z,14.27
2017-01-28T12:34:10.641Z,14.46
2017-01-28T12:35:21.282Z,14.45
2017-01-28T12:36:32.018Z,14.46
2017-01-28T12:37:41.978Z,14.27
2017-01-28T12:38:52.724Z,14.27
2017-01-28T12:40:03.467Z,14.17
2017-01-28T12:41:13.678Z,14.37
2017-01-28T12:42:24.416Z,14.27
2017-01-28T12:43:35.144Z,14.37
2017-01-28T12:44:45.491Z,14.27
2017-01-28T12:45:56.237Z,13.98
2017-01-28T12:47:06.499Z,14.27
2017-01-28T12:48:17.232Z,14.37
2017-01-28T12:49:27.579Z,14.08
2017-01-28T12:50:37.925Z,14.46
2017-01-28T12:51:48.266Z,14.36
2017-01-28T12:52:59.305Z,14.45
2017-01-28T12:54:09.680Z,14.26
2017-01-28T12:55:20.020Z,14.46
2017-01-28T12:56:30.352Z,14.36
2017-01-28T12:57:40.324Z,14.46
2017-01-28T12:58:50.163Z,14.37
2017-01-28T12:59:59.709Z,14.45
2017-01-28T13:01:10.452Z,14.36
2017-01-28T13:02:20.792Z,14.45
2017-01-28T13:03:31.140Z,14.26
2017-01-28T13:04:41.786Z,14.36
2017-01-28T13:05:51.717Z,14.26
2017-01-28T13:07:02.485Z,14.36
2017-01-28T13:08:13.262Z,14.45
2017-01-28T13:09:23.576Z,14.45
2017-01-28T13:10:34.224Z,14.46
2017-01-28T13:11:44.549Z,14.56
2017-01-28T13:12:54.895Z,14.26
2017-01-28T13:14:04.902Z,14.37
2017-01-28T13:15:15.650Z,14.26
2017-01-28T13:16:26.288Z,14.65
2017-01-28T13:17:37.013Z,14.26
2017-01-28T13:18:48.061Z,14.26
2017-01-28T13:19:58.822Z,14.74
2017-01-28T13:21:09.139Z,14.65
2017-01-28T13:22:19.381Z,14.65
2017-01-28T13:23:29.810Z,14.74
2017-01-28T13:24:39.754Z,14.45
2017-01-28T13:25:50.128Z,14.27
2017-01-28T13:27:00.464Z,14.27
2017-01-28T13:28:11.080Z,14.36
2017-01-28T13:29:22.049Z,14.55
2017-01-28T13:30:32.417Z,14.36
2017-01-28T13:31:43.162Z,14.55
2017-01-28T13:32:53.905Z,14.74
2017-01-28T13:34:04.576Z,14.84
2017-01-28T13:35:15.323Z,14.94
2017-01-28T13:36:26.081Z,14.94
2017-01-28T13:37:36.414Z,14.74
2017-01-28T13:38:46.846Z,14.94
2017-01-28T13:39:57.499Z,14.74
2017-01-28T13:41:07.055Z,14.84
2017-01-28T13:42:17.199Z,14.17
2017-01-28T13:43:26.747Z,14.55
2017-01-28T13:44:36.697Z,14.65
2017-01-28T13:45:47.743Z,14.65
2017-01-28T13:46:58.078Z,14.74
2017-01-28T13:48:08.412Z,14.84
2017-01-28T13:49:19.150Z,14.84
2017-01-28T13:50:29.480Z,14.55
2017-01-28T13:51:40.108Z,14.74
2017-01-28T13:52:49.672Z,14.65
2017-01-28T13:54:00.424Z,14.74
2017-01-28T13:55:11.191Z,14.55
2017-01-28T13:56:21.529Z,14.56
2017-01-28T13:57:32.573Z,14.17
2017-01-28T13:58:42.905Z,14.17
2017-01-28T13:59:53.677Z,14.36
2017-01-28T14:01:03.634Z,14.94
2017-01-28T14:02:14.380Z,14.74
2017-01-28T14:03:24.569Z,14.37
2017-01-28T14:04:35.318Z,14.55
2017-01-28T14:05:45.676Z,14.56
2017-01-28T14:06:56.041Z,14.84
2017-01-28T14:08:06.408Z,14.65
2017-01-28T14:09:17.437Z,14.84
2017-01-28T14:10:27.778Z,14.84
2017-01-28T14:11:37.708Z,14.65
2017-01-28T14:12:48.458Z,14.94
2017-01-28T14:13:59.189Z,14.84
2017-01-28T14:15:10.217Z,14.84
2017-01-28T14:16:20.653Z,14.74
2017-01-28T14:17:31.410Z,14.75
2017-01-28T14:18:41.340Z,14.74
2017-01-28T14:19:52.065Z,14.75
2017-01-28T14:21:07.115Z,14.84
2017-01-28T14:22:17.488Z,14.84
2017-01-28T14:23:27.817Z,14.94
2017-01-28T14:24:38.143Z,14.56
2017-01-28T14:25:48.898Z,14.27
2017-01-28T14:26:59.967Z,14.56
2017-01-28T14:28:09.914Z,14.75
2017-01-28T14:29:19.881Z,14.94
2017-01-28T14:30:30.654Z,14.84
2017-01-28T14:31:40.587Z,14.84
2017-01-28T14:32:51.232Z,14.84
2017-01-28T14:34:01.580Z,14.56
2017-01-28T14:35:11.931Z,14.56
2017-01-28T14:36:22.275Z,14.56
2017-01-28T14:37:33.032Z,14.94
2017-01-28T14:38:44.066Z,14.56
2017-01-28T14:39:54.805Z,14.84
2017-01-28T14:41:05.135Z,14.65
2017-01-28T14:42:15.487Z,14.75
2017-01-28T14:43:26.217Z,14.74
2017-01-28T14:44:36.849Z,14.46
2017-01-28T14:45:47.575Z,14.75
2017-01-28T14:46:57.919Z,14.74
2017-01-28T14:48:08.257Z,14.65
2017-01-28T14:49:18.592Z,14.84
2017-01-28T14:50:29.215Z,14.75
2017-01-28T14:51:39.934Z,14.56
2017-01-28T14:52:50.670Z,14.75
2017-01-28T14:54:00.614Z,14.65
2017-01-28T14:55:10.543Z,14.65
2017-01-28T14:56:20.733Z,14.84
2017-01-28T14:57:30.666Z,14.65
2017-01-28T14:58:41.070Z,14.75
2017-01-28T14:59:51.803Z,14.75
2017-01-28T15:01:01.752Z,14.56
2017-01-28T15:02:12.725Z,14.56
2017-01-28T15:03:23.074Z,14.56
2017-01-28T15:04:33.814Z,14.56
2017-01-28T15:05:44.158Z,14.65